Byron, Nebraska
Current Conditions -  °F | °C
As of 1:35 AM on Thursday 23 Oct 2014 (Local Time) from KHJH Reporting Station
Clear Clear  
Wind Chill: 59°   Ceiling: Unl
Heat Index: 59°   Visibility: 10mi
Dew Point: 56°   Wind: 8mph
Humidity: 90%   Direction: 190°S
Pressure: 30.03"   Gusts: NA
Location:  40°N, 97.77°W
Report Text: KHJH 230635Z AUTO 19007KT 10SM CLR 15/13 A3003 RMK AO2 T01500134
Loading
Personal Weather Stations






























Interactive Weather Map
Tropical Storm Tracking
New forecast layout! Learn more

10-Day Weather Forecast

Advertisements
Track Severe Weather on mobile